sensor_id;sensor_type;location;lat;lon;timestamp;pressure;altitude;pressure_sealevel;temperature;humidity
73600;BME280;61877;48.246;9.220;2023-02-08T00:01:36;95790.22;;;-8.22;87.59
73600;BME280;61877;48.246;9.220;2023-02-08T00:04:01;95793.31;;;-8.33;86.67
73600;BME280;61877;48.246;9.220;2023-02-08T00:06:28;95782.69;;;-8.17;86.25
73600;BME280;61877;48.246;9.220;2023-02-08T00:08:54;95771.59;;;-8.26;86.67
73600;BME280;61877;48.246;9.220;2023-02-08T00:11:19;95781.91;;;-8.32;86.09
73600;BME280;61877;48.246;9.220;2023-02-08T00:13:45;95779.69;;;-8.35;86.40
73600;BME280;61877;48.246;9.220;2023-02-08T00:16:11;95778.44;;;-8.39;86.92
73600;BME280;61877;48.246;9.220;2023-02-08T00:18:37;95760.50;;;-8.34;85.24
73600;BME280;61877;48.246;9.220;2023-02-08T00:21:06;95766.94;;;-8.45;86.28
73600;BME280;61877;48.246;9.220;2023-02-08T00:23:33;95761.47;;;-8.50;86.88
73600;BME280;61877;48.246;9.220;2023-02-08T00:25:58;95769.47;;;-8.51;87.19
73600;BME280;61877;48.246;9.220;2023-02-08T00:28:24;95762.47;;;-8.51;86.79
73600;BME280;61877;48.246;9.220;2023-02-08T00:30:49;95758.78;;;-8.42;87.50
73600;BME280;61877;48.246;9.220;2023-02-08T00:33:15;95755.56;;;-8.29;87.97
73600;BME280;61877;48.246;9.220;2023-02-08T00:35:40;95754.28;;;-8.33;86.29
73600;BME280;61877;48.246;9.220;2023-02-08T00:38:05;95752.94;;;-8.29;86.55
73600;BME280;61877;48.246;9.220;2023-02-08T00:40:32;95748.41;;;-8.21;85.60
73600;BME280;61877;48.246;9.220;2023-02-08T00:42:57;95751.31;;;-8.30;85.54
73600;BME280;61877;48.246;9.220;2023-02-08T00:45:23;95752.13;;;-8.30;85.64
73600;BME280;61877;48.246;9.220;2023-02-08T00:47:48;95749.25;;;-8.35;86.14
73600;BME280;61877;48.246;9.220;2023-02-08T00:50:14;95752.59;;;-8.41;86.57
73600;BME280;61877;48.246;9.220;2023-02-08T00:52:39;95757.72;;;-8.33;85.11
73600;BME280;61877;48.246;9.220;2023-02-08T00:55:06;95756.88;;;-8.33;85.01
73600;BME280;61877;48.246;9.220;2023-02-08T00:57:33;95750.59;;;-8.39;86.11
73600;BME280;61877;48.246;9.220;2023-02-08T00:59:58;95754.03;;;-8.38;86.68
73600;BME280;61877;48.246;9.220;2023-02-08T01:02:24;95754.75;;;-8.44;86.39
73600;BME280;61877;48.246;9.220;2023-02-08T01:04:50;95756.28;;;-8.50;86.09
73600;BME280;61877;48.246;9.220;2023-02-08T01:07:15;95755.28;;;-8.49;86.63
73600;BME280;61877;48.246;9.220;2023-02-08T01:09:41;95747.81;;;-8.52;87.07
73600;BME280;61877;48.246;9.220;2023-02-08T01:12:06;95740.56;;;-8.56;86.50
73600;BME280;61877;48.246;9.220;2023-02-08T01:14:33;95748.66;;;-8.51;86.32
73600;BME280;61877;48.246;9.220;2023-02-08T01:16:59;95745.69;;;-8.48;86.12
73600;BME280;61877;48.246;9.220;2023-02-08T01:19:24;95749.78;;;-8.54;85.99
73600;BME280;61877;48.246;9.220;2023-02-08T01:21:50;95738.34;;;-8.59;86.43
73600;BME280;61877;48.246;9.220;2023-02-08T01:24:15;95741.63;;;-8.65;86.45
73600;BME280;61877;48.246;9.220;2023-02-08T01:26:41;95739.66;;;-8.63;86.26
73600;BME280;61877;48.246;9.220;2023-02-08T01:29:07;95745.59;;;-8.69;86.31
73600;BME280;61877;48.246;9.220;2023-02-08T01:31:36;95744.50;;;-8.75;86.82
73600;BME280;61877;48.246;9.220;2023-02-08T01:34:03;95741.47;;;-8.78;86.35
73600;BME280;61877;48.246;9.220;2023-02-08T01:36:29;95744.25;;;-8.80;86.70
73600;BME280;61877;48.246;9.220;2023-02-08T01:38:55;95742.63;;;-8.81;86.87
73600;BME280;61877;48.246;9.220;2023-02-08T01:41:23;95736.53;;;-8.88;86.74
73600;BME280;61877;48.246;9.220;2023-02-08T01:44:05;95735.63;;;-8.95;87.26
73600;BME280;61877;48.246;9.220;2023-02-08T01:46:31;95734.97;;;-8.97;87.55
73600;BME280;61877;48.246;9.220;2023-02-08T01:49:01;95730.97;;;-8.99;87.23
73600;BME280;61877;48.246;9.220;2023-02-08T01:51:30;95728.34;;;-8.99;86.98
73600;BME280;61877;48.246;9.220;2023-02-08T01:53:59;95723.25;;;-9.07;86.25
73600;BME280;61877;48.246;9.220;2023-02-08T01:56:30;95722.44;;;-9.08;86.91
73600;BME280;61877;48.246;9.220;2023-02-08T01:59:03;95717.16;;;-9.00;87.25
73600;BME280;61877;48.246;9.220;2023-02-08T02:01:31;95719.91;;;-9.01;86.67
73600;BME280;61877;48.246;9.220;2023-02-08T02:04:00;95718.97;;;-9.00;85.87
73600;BME280;61877;48.246;9.220;2023-02-08T02:06:30;95718.78;;;-8.99;85.76
73600;BME280;61877;48.246;9.220;2023-02-08T02:09:03;95715.09;;;-9.04;85.77
73600;BME280;61877;48.246;9.220;2023-02-08T02:11:29;95713.13;;;-9.02;86.51
73600;BME280;61877;48.246;9.220;2023-02-08T02:13:56;95718.22;;;-9.09;85.72
73600;BME280;61877;48.246;9.220;2023-02-08T02:16:21;95721.78;;;-9.10;85.70
73600;BME280;61877;48.246;9.220;2023-02-08T02:18:47;95709.69;;;-9.17;85.68
73600;BME280;61877;48.246;9.220;2023-02-08T02:21:35;95708.13;;;-9.26;85.24
73600;BME280;61877;48.246;9.220;2023-02-08T02:24:29;95708.50;;;-9.29;85.63
73600;BME280;61877;48.246;9.220;2023-02-08T02:30:30;95716.44;;;-9.46;86.13
73600;BME280;61877;48.246;9.220;2023-02-08T02:33:30;95717.84;;;-9.58;86.58
73600;BME280;61877;48.246;9.220;2023-02-08T02:36:02;95716.63;;;-9.47;86.49
73600;BME280;61877;48.246;9.220;2023-02-08T02:38:40;95710.97;;;-9.51;86.43
73600;BME280;61877;48.246;9.220;2023-02-08T02:41:16;95713.91;;;-9.54;86.31
73600;BME280;61877;48.246;9.220;2023-02-08T02:43:45;95707.09;;;-9.55;85.98
73600;BME280;61877;48.246;9.220;2023-02-08T02:46:22;95708.78;;;-9.62;86.17
73600;BME280;61877;48.246;9.220;2023-02-08T02:48:56;95703.88;;;-9.57;86.58
73600;BME280;61877;48.246;9.220;2023-02-08T02:51:26;95705.50;;;-9.56;85.96
73600;BME280;61877;48.246;9.220;2023-02-08T02:53:56;95701.28;;;-9.57;86.14
73600;BME280;61877;48.246;9.220;2023-02-08T02:56:26;95704.97;;;-9.51;86.71
73600;BME280;61877;48.246;9.220;2023-02-08T02:58:57;95702.78;;;-9.62;86.34
73600;BME280;61877;48.246;9.220;2023-02-08T03:01:25;95704.91;;;-9.66;86.12
73600;BME280;61877;48.246;9.220;2023-02-08T03:03:52;95700.44;;;-9.72;86.19
73600;BME280;61877;48.246;9.220;2023-02-08T03:06:28;95699.16;;;-9.76;86.83
73600;BME280;61877;48.246;9.220;2023-02-08T03:09:16;95703.75;;;-9.86;86.28
73600;BME280;61877;48.246;9.220;2023-02-08T03:11:46;95697.94;;;-9.88;86.57
73600;BME280;61877;48.246;9.220;2023-02-08T03:14:30;95701.69;;;-9.90;86.82
73600;BME280;61877;48.246;9.220;2023-02-08T03:17:26;95704.81;;;-9.95;86.70
73600;BME280;61877;48.246;9.220;2023-02-08T03:20:03;95696.75;;;-10.00;87.00
73600;BME280;61877;48.246;9.220;2023-02-08T03:22:40;95698.34;;;-9.99;86.80
73600;BME280;61877;48.246;9.220;2023-02-08T03:25:10;95691.88;;;-10.03;86.50
73600;BME280;61877;48.246;9.220;2023-02-08T03:27:38;95698.78;;;-10.10;86.75
73600;BME280;61877;48.246;9.220;2023-02-08T03:30:09;95689.53;;;-10.12;86.48
73600;BME280;61877;48.246;9.220;2023-02-08T03:32:39;95696.19;;;-10.10;86.35
73600;BME280;61877;48.246;9.220;2023-02-08T03:35:10;95687.59;;;-10.10;86.47
73600;BME280;61877;48.246;9.220;2023-02-08T03:37:42;95689.41;;;-10.19;86.02
73600;BME280;61877;48.246;9.220;2023-02-08T03:40:14;95696.38;;;-10.19;86.13
73600;BME280;61877;48.246;9.220;2023-02-08T03:42:41;95683.88;;;-10.16;85.54
73600;BME280;61877;48.246;9.220;2023-02-08T03:45:12;95695.44;;;-10.18;85.12
73600;BME280;61877;48.246;9.220;2023-02-08T03:47:41;95682.34;;;-10.25;85.73
73600;BME280;61877;48.246;9.220;2023-02-08T03:50:11;95688.88;;;-10.37;85.70
73600;BME280;61877;48.246;9.220;2023-02-08T03:52:38;95689.56;;;-10.43;85.94
73600;BME280;61877;48.246;9.220;2023-02-08T03:55:07;95683.66;;;-10.29;86.73
73600;BME280;61877;48.246;9.220;2023-02-08T03:57:37;95691.06;;;-10.26;86.54
73600;BME280;61877;48.246;9.220;2023-02-08T04:00:11;95685.88;;;-10.26;85.91
73600;BME280;61877;48.246;9.220;2023-02-08T04:02:41;95692.94;;;-10.12;86.01
73600;BME280;61877;48.246;9.220;2023-02-08T04:05:10;95685.22;;;-10.20;85.73
73600;BME280;61877;48.246;9.220;2023-02-08T04:07:36;95682.47;;;-10.04;84.88
73600;BME280;61877;48.246;9.220;2023-02-08T04:10:02;95683.22;;;-10.10;85.09
73600;BME280;61877;48.246;9.220;2023-02-08T04:12:28;95681.84;;;-10.06;85.29
73600;BME280;61877;48.246;9.220;2023-02-08T04:14:53;95674.53;;;-10.02;84.62
73600;BME280;61877;48.246;9.220;2023-02-08T04:17:19;95675.63;;;-9.97;84.65
73600;BME280;61877;48.246;9.220;2023-02-08T04:19:45;95674.47;;;-9.94;84.40
73600;BME280;61877;48.246;9.220;2023-02-08T04:22:12;95679.81;;;-9.96;83.90
73600;BME280;61877;48.246;9.220;2023-02-08T04:24:37;95673.38;;;-10.00;83.41
73600;BME280;61877;48.246;9.220;2023-02-08T04:27:03;95682.56;;;-10.12;83.62
73600;BME280;61877;48.246;9.220;2023-02-08T04:29:28;95673.09;;;-10.27;83.56
73600;BME280;61877;48.246;9.220;2023-02-08T04:31:54;95678.47;;;-10.29;84.86
73600;BME280;61877;48.246;9.220;2023-02-08T04:34:19;95675.50;;;-10.26;85.06
73600;BME280;61877;48.246;9.220;2023-02-08T04:36:45;95676.22;;;-10.32;83.92
73600;BME280;61877;48.246;9.220;2023-02-08T04:39:12;95667.78;;;-10.34;84.49
73600;BME280;61877;48.246;9.220;2023-02-08T04:41:38;95668.47;;;-10.40;84.48
73600;BME280;61877;48.246;9.220;2023-02-08T04:44:03;95669.78;;;-10.44;84.08
73600;BME280;61877;48.246;9.220;2023-02-08T04:46:29;95666.72;;;-10.47;85.25
73600;BME280;61877;48.246;9.220;2023-02-08T04:48:54;95666.91;;;-10.49;84.88
73600;BME280;61877;48.246;9.220;2023-02-08T04:51:21;95664.66;;;-10.52;85.28
73600;BME280;61877;48.246;9.220;2023-02-08T04:53:47;95672.91;;;-10.48;85.37
73600;BME280;61877;48.246;9.220;2023-02-08T04:56:14;95666.84;;;-10.41;86.00
73600;BME280;61877;48.246;9.220;2023-02-08T04:58:40;95663.75;;;-10.36;84.64
73600;BME280;61877;48.246;9.220;2023-02-08T05:01:06;95659.81;;;-10.32;84.48
73600;BME280;61877;48.246;9.220;2023-02-08T05:03:32;95652.50;;;-10.29;83.90
73600;BME280;61877;48.246;9.220;2023-02-08T05:05:58;95651.09;;;-10.31;84.08
73600;BME280;61877;48.246;9.220;2023-02-08T05:08:25;95657.97;;;-10.46;83.91
73600;BME280;61877;48.246;9.220;2023-02-08T05:10:50;95653.84;;;-10.33;84.16
73600;BME280;61877;48.246;9.220;2023-02-08T05:13:17;95644.03;;;-10.45;84.20
73600;BME280;61877;48.246;9.220;2023-02-08T05:15:43;95648.19;;;-10.36;83.95
73600;BME280;61877;48.246;9.220;2023-02-08T05:18:09;95644.84;;;-10.45;84.01
73600;BME280;61877;48.246;9.220;2023-02-08T05:20:34;95649.56;;;-10.48;84.29
73600;BME280;61877;48.246;9.220;2023-02-08T05:23:00;95655.09;;;-10.51;83.63
73600;BME280;61877;48.246;9.220;2023-02-08T05:25:26;95660.16;;;-10.58;84.21
73600;BME280;61877;48.246;9.220;2023-02-08T05:27:51;95658.88;;;-10.62;84.12
73600;BME280;61877;48.246;9.220;2023-02-08T05:30:18;95662.78;;;-10.66;84.84
73600;BME280;61877;48.246;9.220;2023-02-08T05:32:44;95657.88;;;-10.61;84.82
73600;BME280;61877;48.246;9.220;2023-02-08T05:35:10;95657.59;;;-10.66;84.80
73600;BME280;61877;48.246;9.220;2023-02-08T05:37:36;95653.84;;;-10.63;84.79
73600;BME280;61877;48.246;9.220;2023-02-08T05:40:02;95653.22;;;-10.65;84.46
73600;BME280;61877;48.246;9.220;2023-02-08T05:42:27;95653.91;;;-10.72;84.40
73600;BME280;61877;48.246;9.220;2023-02-08T05:44:53;95650.84;;;-10.75;84.37
73600;BME280;61877;48.246;9.220;2023-02-08T05:47:20;95655.03;;;-10.74;85.18
73600;BME280;61877;48.246;9.220;2023-02-08T05:49:45;95649.53;;;-10.71;85.71
73600;BME280;61877;48.246;9.220;2023-02-08T05:52:11;95659.09;;;-10.72;85.72
73600;BME280;61877;48.246;9.220;2023-02-08T05:54:36;95653.06;;;-10.72;85.10
73600;BME280;61877;48.246;9.220;2023-02-08T05:57:03;95655.56;;;-10.48;84.89
73600;BME280;61877;48.246;9.220;2023-02-08T05:59:28;95659.50;;;-10.60;84.85
73600;BME280;61877;48.246;9.220;2023-02-08T06:01:54;95661.75;;;-10.57;85.03
73600;BME280;61877;48.246;9.220;2023-02-08T06:04:21;95664.41;;;-10.65;85.37
73600;BME280;61877;48.246;9.220;2023-02-08T06:06:47;95663.53;;;-10.57;85.09
73600;BME280;61877;48.246;9.220;2023-02-08T06:09:12;95666.59;;;-10.54;85.51
73600;BME280;61877;48.246;9.220;2023-02-08T06:11:38;95665.94;;;-10.48;85.07
73600;BME280;61877;48.246;9.220;2023-02-08T06:28:15;95667.25;;;-10.21;85.00
73600;BME280;61877;48.246;9.220;2023-02-08T06:30:40;95657.53;;;-10.05;84.95
73600;BME280;61877;48.246;9.220;2023-02-08T06:33:06;95668.50;;;-10.03;84.69
73600;BME280;61877;48.246;9.220;2023-02-08T06:35:31;95659.25;;;-9.97;85.02
73600;BME280;61877;48.246;9.220;2023-02-08T06:37:57;95655.53;;;-10.03;85.33
73600;BME280;61877;48.246;9.220;2023-02-08T06:40:22;95660.72;;;-10.03;85.34
73600;BME280;61877;48.246;9.220;2023-02-08T06:42:48;95665.06;;;-10.10;85.23
73600;BME280;61877;48.246;9.220;2023-02-08T06:45:15;95657.97;;;-10.01;85.58
73600;BME280;61877;48.246;9.220;2023-02-08T06:47:40;95660.00;;;-9.89;85.61
73600;BME280;61877;48.246;9.220;2023-02-08T06:50:06;95652.56;;;-9.92;85.25
73600;BME280;61877;48.246;9.220;2023-02-08T06:52:32;95653.25;;;-9.98;85.31
73600;BME280;61877;48.246;9.220;2023-02-08T06:54:57;95662.66;;;-9.97;85.51
73600;BME280;61877;48.246;9.220;2023-02-08T06:57:23;95660.84;;;-9.74;85.26
73600;BME280;61877;48.246;9.220;2023-02-08T06:59:48;95655.94;;;-9.69;84.99
73600;BME280;61877;48.246;9.220;2023-02-08T07:02:16;95657.53;;;-9.45;85.58
73600;BME280;61877;48.246;9.220;2023-02-08T07:04:43;95655.06;;;-9.47;85.52
73600;BME280;61877;48.246;9.220;2023-02-08T07:07:08;95646.31;;;-9.31;84.78
73600;BME280;61877;48.246;9.220;2023-02-08T07:09:34;95641.50;;;-9.05;84.87
73600;BME280;61877;48.246;9.220;2023-02-08T07:12:00;95644.53;;;-8.87;85.34
73600;BME280;61877;48.246;9.220;2023-02-08T07:14:26;95652.41;;;-8.66;85.37
73600;BME280;61877;48.246;9.220;2023-02-08T07:16:51;95644.97;;;-8.54;85.39
73600;BME280;61877;48.246;9.220;2023-02-08T07:19:18;95649.63;;;-8.29;85.37
73600;BME280;61877;48.246;9.220;2023-02-08T07:21:43;95656.03;;;-7.89;82.97
73600;BME280;61877;48.246;9.220;2023-02-08T07:24:09;95655.59;;;-7.71;83.40
73600;BME280;61877;48.246;9.220;2023-02-08T07:26:34;95656.63;;;-7.45;82.44
73600;BME280;61877;48.246;9.220;2023-02-08T07:29:00;95649.63;;;-7.17;81.04
73600;BME280;61877;48.246;9.220;2023-02-08T07:31:27;95655.13;;;-7.05;81.72
73600;BME280;61877;48.246;9.220;2023-02-08T07:33:52;95647.56;;;-6.94;81.29
73600;BME280;61877;48.246;9.220;2023-02-08T07:36:19;95654.97;;;-6.56;78.06
73600;BME280;61877;48.246;9.220;2023-02-08T07:38:44;95656.19;;;-6.52;78.91
73600;BME280;61877;48.246;9.220;2023-02-08T07:41:11;95657.09;;;-6.32;78.80
73600;BME280;61877;48.246;9.220;2023-02-08T07:43:39;95660.16;;;-6.22;77.95
73600;BME280;61877;48.246;9.220;2023-02-08T07:46:05;95657.16;;;-6.06;77.71
73600;BME280;61877;48.246;9.220;2023-02-08T07:48:31;95655.81;;;-5.89;76.27
73600;BME280;61877;48.246;9.220;2023-02-08T07:50:56;95655.00;;;-5.70;74.57
73600;BME280;61877;48.246;9.220;2023-02-08T07:53:23;95658.44;;;-5.63;74.33
73600;BME280;61877;48.246;9.220;2023-02-08T07:55:48;95663.88;;;-5.58;73.35
73600;BME280;61877;48.246;9.220;2023-02-08T07:58:14;95673.34;;;-5.44;72.29
73600;BME280;61877;48.246;9.220;2023-02-08T08:00:39;95654.66;;;-5.41;71.89
73600;BME280;61877;48.246;9.220;2023-02-08T08:03:05;95665.50;;;-5.31;70.06
73600;BME280;61877;48.246;9.220;2023-02-08T08:05:30;95672.53;;;-5.18;70.46
73600;BME280;61877;48.246;9.220;2023-02-08T08:07:56;95670.94;;;-5.00;69.95
73600;BME280;61877;48.246;9.220;2023-02-08T08:10:22;95675.94;;;-4.92;71.22
73600;BME280;61877;48.246;9.220;2023-02-08T08:12:48;95681.56;;;-4.88;71.42
73600;BME280;61877;48.246;9.220;2023-02-08T08:15:13;95686.41;;;-4.79;69.47
73600;BME280;61877;48.246;9.220;2023-02-08T08:17:39;95673.09;;;-4.71;67.99
73600;BME280;61877;48.246;9.220;2023-02-08T08:20:05;95682.97;;;-4.66;69.92
73600;BME280;61877;48.246;9.220;2023-02-08T08:22:30;95683.75;;;-4.53;68.89
73600;BME280;61877;48.246;9.220;2023-02-08T08:24:56;95675.28;;;-4.55;69.09
73600;BME280;61877;48.246;9.220;2023-02-08T08:27:23;95682.50;;;-4.44;69.81
73600;BME280;61877;48.246;9.220;2023-02-08T08:29:48;95687.31;;;-4.41;68.34
73600;BME280;61877;48.246;9.220;2023-02-08T08:32:13;95676.44;;;-4.31;67.89
73600;BME280;61877;48.246;9.220;2023-02-08T08:34:39;95677.16;;;-4.18;68.33
73600;BME280;61877;48.246;9.220;2023-02-08T08:37:04;95674.34;;;-4.16;68.18
73600;BME280;61877;48.246;9.220;2023-02-08T08:39:30;95669.66;;;-4.08;68.63
73600;BME280;61877;48.246;9.220;2023-02-08T08:41:56;95661.38;;;-3.98;66.93
73600;BME280;61877;48.246;9.220;2023-02-08T08:44:23;95667.72;;;-3.81;66.29
73600;BME280;61877;48.246;9.220;2023-02-08T08:46:48;95668.72;;;-3.75;66.02
73600;BME280;61877;48.246;9.220;2023-02-08T08:49:14;95669.47;;;-3.68;66.46
73600;BME280;61877;48.246;9.220;2023-02-08T08:51:42;95664.41;;;-3.63;64.12
73600;BME280;61877;48.246;9.220;2023-02-08T08:54:07;95668.75;;;-3.51;63.74
73600;BME280;61877;48.246;9.220;2023-02-08T08:56:33;95666.00;;;-3.31;64.80
73600;BME280;61877;48.246;9.220;2023-02-08T08:58:59;95658.16;;;-3.38;63.78
73600;BME280;61877;48.246;9.220;2023-02-08T09:01:25;95658.44;;;-3.21;63.11
73600;BME280;61877;48.246;9.220;2023-02-08T09:03:51;95659.69;;;-2.99;63.33
73600;BME280;61877;48.246;9.220;2023-02-08T09:06:16;95656.19;;;-2.93;61.50
73600;BME280;61877;48.246;9.220;2023-02-08T09:08:42;95656.38;;;-2.70;59.03
73600;BME280;61877;48.246;9.220;2023-02-08T09:11:08;95660.41;;;-2.68;59.21
73600;BME280;61877;48.246;9.220;2023-02-08T09:13:35;95655.69;;;-2.59;60.42
73600;BME280;61877;48.246;9.220;2023-02-08T09:16:04;95665.91;;;-2.33;60.14
73600;BME280;61877;48.246;9.220;2023-02-08T09:18:31;95662.38;;;-2.45;59.89
73600;BME280;61877;48.246;9.220;2023-02-08T09:20:56;95663.63;;;-2.11;60.24
73600;BME280;61877;48.246;9.220;2023-02-08T09:23:22;95660.41;;;-1.95;58.48
73600;BME280;61877;48.246;9.220;2023-02-08T09:25:47;95660.75;;;-1.92;58.04
73600;BME280;61877;48.246;9.220;2023-02-08T09:28:13;95665.47;;;-1.82;57.68
73600;BME280;61877;48.246;9.220;2023-02-08T09:30:38;95664.53;;;-1.70;57.26
73600;BME280;61877;48.246;9.220;2023-02-08T09:33:03;95667.38;;;-1.42;55.97
73600;BME280;61877;48.246;9.220;2023-02-08T09:35:30;95660.63;;;-1.26;57.20
73600;BME280;61877;48.246;9.220;2023-02-08T09:37:55;95656.50;;;-1.34;55.50
73600;BME280;61877;48.246;9.220;2023-02-08T09:40:23;95665.66;;;-0.83;55.42
73600;BME280;61877;48.246;9.220;2023-02-08T09:42:55;95655.69;;;-0.47;53.70
73600;BME280;61877;48.246;9.220;2023-02-08T09:45:35;95653.69;;;-0.05;52.44
73600;BME280;61877;48.246;9.220;2023-02-08T09:48:12;95653.06;;;0.44;52.49
73600;BME280;61877;48.246;9.220;2023-02-08T09:50:44;95648.69;;;0.38;50.98
73600;BME280;61877;48.246;9.220;2023-02-08T09:53:13;95645.91;;;1.56;47.98
73600;BME280;61877;48.246;9.220;2023-02-08T09:55:42;95649.88;;;1.75;47.42
73600;BME280;61877;48.246;9.220;2023-02-08T09:58:17;95646.03;;;1.82;45.46
73600;BME280;61877;48.246;9.220;2023-02-08T10:00:46;95654.19;;;1.81;46.99
73600;BME280;61877;48.246;9.220;2023-02-08T10:03:22;95646.63;;;2.32;43.34
73600;BME280;61877;48.246;9.220;2023-02-08T10:05:53;95654.59;;;2.59;45.16
73600;BME280;61877;48.246;9.220;2023-02-08T10:08:18;95649.41;;;3.27;44.47
73600;BME280;61877;48.246;9.220;2023-02-08T10:10:50;95655.13;;;3.87;42.12
73600;BME280;61877;48.246;9.220;2023-02-08T10:13:29;95641.47;;;4.16;41.29
73600;BME280;61877;48.246;9.220;2023-02-08T10:16:08;95649.69;;;4.14;38.72
73600;BME280;61877;48.246;9.220;2023-02-08T10:18:43;95652.03;;;4.06;39.00
73600;BME280;61877;48.246;9.220;2023-02-08T10:21:21;95641.47;;;3.01;39.89
73600;BME280;61877;48.246;9.220;2023-02-08T10:24:02;95643.44;;;2.84;43.47
73600;BME280;61877;48.246;9.220;2023-02-08T10:26:40;95647.88;;;4.30;39.63
73600;BME280;61877;48.246;9.220;2023-02-08T10:29:38;95643.81;;;5.39;39.38
73600;BME280;61877;48.246;9.220;2023-02-08T10:32:22;95645.47;;;3.76;39.01
73600;BME280;61877;48.246;9.220;2023-02-08T10:34:53;95640.06;;;4.85;38.35
73600;BME280;61877;48.246;9.220;2023-02-08T10:37:28;95636.81;;;6.23;36.92
73600;BME280;61877;48.246;9.220;2023-02-08T10:39:55;95641.72;;;5.31;37.46
73600;BME280;61877;48.246;9.220;2023-02-08T10:42:23;95642.41;;;4.61;39.47
73600;BME280;61877;48.246;9.220;2023-02-08T10:45:02;95631.91;;;6.45;36.39
73600;BME280;61877;48.246;9.220;2023-02-08T10:47:38;95634.53;;;5.52;36.45
73600;BME280;61877;48.246;9.220;2023-02-08T10:50:14;95629.19;;;5.52;37.10
73600;BME280;61877;48.246;9.220;2023-02-08T10:52:43;95620.31;;;6.16;36.54
73600;BME280;61877;48.246;9.220;2023-02-08T10:55:13;95616.53;;;7.15;34.12
73600;BME280;61877;48.246;9.220;2023-02-08T10:57:39;95616.63;;;5.77;35.72
73600;BME280;61877;48.246;9.220;2023-02-08T11:00:07;95619.09;;;4.93;36.42
73600;BME280;61877;48.246;9.220;2023-02-08T11:02:39;95612.06;;;6.67;35.30
73600;BME280;61877;48.246;9.220;2023-02-08T11:05:08;95600.84;;;7.42;32.82
73600;BME280;61877;48.246;9.220;2023-02-08T11:07:34;95602.53;;;7.61;34.14
73600;BME280;61877;48.246;9.220;2023-02-08T11:10:21;95597.66;;;7.68;32.21
73600;BME280;61877;48.246;9.220;2023-02-08T11:12:54;95595.38;;;6.95;33.83
73600;BME280;61877;48.246;9.220;2023-02-08T11:15:22;95597.66;;;7.40;33.57
73600;BME280;61877;48.246;9.220;2023-02-08T11:17:52;95600.78;;;6.85;34.46
73600;BME280;61877;48.246;9.220;2023-02-08T11:20:21;95595.16;;;5.39;35.78
73600;BME280;61877;48.246;9.220;2023-02-08T11:22:49;95596.97;;;5.68;36.54
73600;BME280;61877;48.246;9.220;2023-02-08T11:25:32;95597.28;;;5.47;35.98
73600;BME280;61877;48.246;9.220;2023-02-08T11:27:58;95595.69;;;6.39;34.91
73600;BME280;61877;48.246;9.220;2023-02-08T11:30:24;95576.97;;;7.55;33.80
73600;BME280;61877;48.246;9.220;2023-02-08T11:33:14;95579.66;;;8.50;31.06
73600;BME280;61877;48.246;9.220;2023-02-08T11:35:40;95583.47;;;7.73;32.69
73600;BME280;61877;48.246;9.220;2023-02-08T11:38:16;95587.69;;;6.39;33.36
73600;BME280;61877;48.246;9.220;2023-02-08T11:40:44;95587.69;;;6.39;33.95
73600;BME280;61877;48.246;9.220;2023-02-08T11:43:19;95591.56;;;7.01;33.94
73600;BME280;61877;48.246;9.220;2023-02-08T11:45:45;95590.09;;;7.18;33.95
73600;BME280;61877;48.246;9.220;2023-02-08T11:48:20;95585.56;;;7.19;34.64
73600;BME280;61877;48.246;9.220;2023-02-08T11:50:52;95583.00;;;7.37;33.81
73600;BME280;61877;48.246;9.220;2023-02-08T11:53:21;95578.28;;;8.34;33.69
73600;BME280;61877;48.246;9.220;2023-02-08T11:56:01;95571.81;;;9.60;31.52
73600;BME280;61877;48.246;9.220;2023-02-08T11:58:27;95565.59;;;10.05;30.03
73600;BME280;61877;48.246;9.220;2023-02-08T12:00:57;95558.25;;;9.38;31.19
73600;BME280;61877;48.246;9.220;2023-02-08T12:03:25;95564.16;;;9.67;31.00
73600;BME280;61877;48.246;9.220;2023-02-08T12:06:05;95552.44;;;10.08;31.35
73600;BME280;61877;48.246;9.220;2023-02-08T12:08:38;95549.44;;;9.96;30.51
73600;BME280;61877;48.246;9.220;2023-02-08T12:11:14;95548.47;;;10.19;29.34
73600;BME280;61877;48.246;9.220;2023-02-08T12:13:56;95548.28;;;10.29;28.28
73600;BME280;61877;48.246;9.220;2023-02-08T12:16:53;95544.41;;;10.71;28.58
73600;BME280;61877;48.246;9.220;2023-02-08T12:19:44;95544.84;;;9.97;29.73
73600;BME280;61877;48.246;9.220;2023-02-08T12:22:17;95549.63;;;8.34;33.07
73600;BME280;61877;48.246;9.220;2023-02-08T12:24:48;95532.28;;;10.11;30.01
73600;BME280;61877;48.246;9.220;2023-02-08T12:27:28;95522.56;;;11.52;28.31
73600;BME280;61877;48.246;9.220;2023-02-08T12:30:02;95508.94;;;10.96;28.00
73600;BME280;61877;48.246;9.220;2023-02-08T12:32:54;95523.13;;;9.85;29.61
73600;BME280;61877;48.246;9.220;2023-02-08T12:35:36;95520.78;;;9.38;31.17
73600;BME280;61877;48.246;9.220;2023-02-08T12:38:10;95502.25;;;8.58;31.22
73600;BME280;61877;48.246;9.220;2023-02-08T12:40:44;95505.47;;;10.11;30.48
73600;BME280;61877;48.246;9.220;2023-02-08T12:43:27;95496.28;;;10.39;29.61
73600;BME280;61877;48.246;9.220;2023-02-08T12:46:13;95492.34;;;12.08;27.32
73600;BME280;61877;48.246;9.220;2023-02-08T12:49:04;95480.69;;;12.55;27.99
73600;BME280;61877;48.246;9.220;2023-02-08T12:51:38;95484.91;;;12.22;26.69
73600;BME280;61877;48.246;9.220;2023-02-08T12:54:08;95481.66;;;12.59;27.28
73600;BME280;61877;48.246;9.220;2023-02-08T12:56:38;95479.75;;;13.28;26.56
73600;BME280;61877;48.246;9.220;2023-02-08T12:59:10;95478.16;;;12.33;26.82
73600;BME280;61877;48.246;9.220;2023-02-08T13:01:44;95470.06;;;13.44;25.37
73600;BME280;61877;48.246;9.220;2023-02-08T13:04:13;95471.97;;;13.90;25.63
73600;BME280;61877;48.246;9.220;2023-02-08T13:06:42;95471.06;;;13.23;25.03
73600;BME280;61877;48.246;9.220;2023-02-08T13:09:14;95466.59;;;14.48;24.89
73600;BME280;61877;48.246;9.220;2023-02-08T13:11:44;95466.94;;;14.17;24.66
73600;BME280;61877;48.246;9.220;2023-02-08T13:14:27;95467.03;;;13.54;25.14
73600;BME280;61877;48.246;9.220;2023-02-08T13:17:00;95458.97;;;14.50;25.37
73600;BME280;61877;48.246;9.220;2023-02-08T13:19:31;95449.84;;;12.70;26.41
73600;BME280;61877;48.246;9.220;2023-02-08T13:21:57;95450.72;;;13.42;25.33
73600;BME280;61877;48.246;9.220;2023-02-08T13:24:33;95447.41;;;13.28;25.84
73600;BME280;61877;48.246;9.220;2023-02-08T13:26:59;95443.25;;;13.85;24.93
73600;BME280;61877;48.246;9.220;2023-02-08T13:29:26;95439.28;;;14.20;24.67